Terminal Aerodrome Forecast
Issued by NWS Louisville, KY

Home | Current Version | Previous Version | Text Only | Print | Product List | Glossary On
Versions: 1 2 3 4 5 6 7 8 9 10 11 12 13 14 15 16 17 18 19 20 21 22 23
000
FTUS43 KLMK 171000 AAA
TAFSDF
TAF AMD
KSDF 171012Z 1710/1812 VRB04KT 5SM BR VCSH BKN080
     FM171400 17007KT 6SM -SHRA BR OVC050
     FM171900 17007KT 6SM -SHRA BR VCTS OVC040CB
     FM180000 VRB04KT 6SM -SHRA BR OVC035=

USA.gov is the U.S. government's official web portal to all federal, state and local government web resources and services.